Time;durP1;ratioP1;P1;durP2;ratioP2;P2;SDS_P1;SDS_P2;PMS_P1;PMS_P2;Temp;Humidity;BMP_temperature;BMP_pressure;BME280_temperature;BME280_humidity;BME280_pressure;Samples;Min_cycle;Max_cycle;Signal;HPM_P1;HPM_P2
2020/12/18 00:00:59;;;;;;;27.45;14.60;;;;;;;5.17;77.60;94360.19;4968356;28;20049;-61
2020/12/18 00:03:25;;;;;;;47.80;20.67;;;;;;;5.20;77.89;94367.41;4965511;28;20022;-61
2020/12/18 00:05:52;;;;;;;40.15;20.13;;;;;;;5.26;77.90;94364.69;4965029;28;20092;-61
2020/12/18 00:08:17;;;;;;;28.27;16.45;;;;;;;5.13;78.31;94361.66;4969390;28;20038;-61
2020/12/18 00:10:43;;;;;;;26.60;14.30;;;;;;;5.16;78.31;94371.59;4965724;28;20027;-61
2020/12/18 00:13:08;;;;;;;24.33;13.93;;;;;;;5.20;77.89;94372.13;4967327;28;20476;-61
2020/12/18 00:15:33;;;;;;;19.85;11.30;;;;;;;5.15;78.20;94364.66;4969378;28;20022;-61
2020/12/18 00:17:59;;;;;;;23.83;13.05;;;;;;;5.03;78.55;94369.31;4964712;28;20549;-61
2020/12/18 00:20:24;;;;;;;24.95;14.38;;;;;;;4.98;78.77;94372.75;4964397;28;20031;-61
2020/12/18 00:22:50;;;;;;;27.42;12.63;;;;;;;5.04;78.46;94364.59;4966548;28;20026;-61
2020/12/18 00:25:15;;;;;;;47.25;26.20;;;;;;;5.00;78.72;94375.03;4962821;28;20027;-61
2020/12/18 00:27:42;;;;;;;24.90;14.27;;;;;;;4.96;78.65;94377.25;4967383;28;20510;-61
2020/12/18 00:30:08;;;;;;;21.48;10.07;;;;;;;5.01;78.46;94368.28;4966949;28;20031;-61
2020/12/18 00:32:36;;;;;;;21.63;10.68;;;;;;;5.08;78.08;94373.31;4969046;28;20031;-61
2020/12/18 00:35:01;;;;;;;19.80;11.32;;;;;;;4.99;77.57;94370.78;4966099;28;20066;-61
2020/12/18 00:37:27;;;;;;;25.45;12.10;;;;;;;5.01;77.76;94371.78;4964609;28;20074;-61
2020/12/18 00:39:52;;;;;;;26.83;13.63;;;;;;;5.05;77.84;94371.53;4967803;28;20544;-61
2020/12/18 00:42:18;;;;;;;25.05;12.90;;;;;;;5.05;78.10;94369.56;4968953;28;20043;-61
2020/12/18 00:44:43;;;;;;;21.17;10.70;;;;;;;5.02;78.37;94376.03;4969355;28;20026;-61
2020/12/18 00:47:08;;;;;;;20.58;10.18;;;;;;;5.10;78.25;94374.31;4965204;28;20073;-61
2020/12/18 00:49:34;;;;;;;18.27;8.98;;;;;;;5.09;77.73;94366.63;4966842;28;20042;-61
2020/12/18 00:52:00;;;;;;;19.10;8.88;;;;;;;5.01;77.83;94377.25;4967350;28;20043;-61
2020/12/18 00:54:25;;;;;;;18.83;9.65;;;;;;;4.89;78.32;94372.22;4965632;28;20041;-61
2020/12/18 00:56:51;;;;;;;17.63;9.80;;;;;;;4.98;78.71;94372.03;4965976;28;20043;-62
2020/12/18 00:59:16;;;;;;;18.35;9.50;;;;;;;5.00;78.52;94375.75;4968233;28;20041;-62
2020/12/18 01:01:41;;;;;;;20.33;10.10;;;;;;;5.04;78.30;94375.53;4968115;28;20030;-62
2020/12/18 01:04:07;;;;;;;29.30;12.77;;;;;;;4.90;78.95;94381.91;4967756;28;20395;-61
2020/12/18 01:06:32;;;;;;;22.58;9.70;;;;;;;4.85;78.72;94368.97;4963676;28;20658;-62
2020/12/18 01:08:58;;;;;;;27.40;13.90;;;;;;;4.81;78.88;94371.94;4966128;28;20053;-61
2020/12/18 01:11:23;;;;;;;18.27;10.55;;;;;;;4.91;78.58;94380.69;4966327;28;20062;-62
2020/12/18 01:13:48;;;;;;;17.13;9.70;;;;;;;4.91;78.12;94380.69;4967251;28;20042;-61
2020/12/18 01:16:15;;;;;;;24.40;10.43;;;;;;;4.88;78.62;94378.94;4966671;28;20137;-62
2020/12/18 01:18:40;;;;;;;19.17;9.73;;;;;;;4.86;78.98;94382.16;4966380;28;20479;-61
2020/12/18 01:21:05;;;;;;;23.23;11.20;;;;;;;4.85;78.92;94379.91;4964927;28;20093;-61
2020/12/18 01:23:31;;;;;;;16.60;9.50;;;;;;;4.93;78.77;94387.19;4970124;28;20097;-61
2020/12/18 01:25:57;;;;;;;21.05;10.15;;;;;;;4.87;78.65;94380.19;4970593;28;20050;-61
2020/12/18 01:28:22;;;;;;;18.85;9.15;;;;;;;5.01;78.60;94387.47;4965496;28;20042;-61
2020/12/18 01:30:48;;;;;;;20.35;10.50;;;;;;;4.98;78.38;94374.78;4970562;28;20031;-61
2020/12/18 01:33:13;;;;;;;20.88;11.00;;;;;;;4.99;78.46;94373.50;4966117;28;20029;-61
2020/12/18 01:35:38;;;;;;;24.30;11.80;;;;;;;4.93;78.41;94373.50;4965541;28;20042;-61
2020/12/18 01:38:04;;;;;;;20.20;10.52;;;;;;;4.97;78.68;94374.00;4969763;28;20026;-61
2020/12/18 01:40:29;;;;;;;20.02;9.68;;;;;;;4.86;79.35;94376.69;4969510;28;20035;-61
2020/12/18 01:42:55;;;;;;;21.88;10.38;;;;;;;4.77;79.40;94367.91;4971758;28;20098;-61
2020/12/18 01:45:20;;;;;;;20.40;10.80;;;;;;;4.82;79.48;94370.69;4969083;28;20482;-61
2020/12/18 01:47:46;;;;;;;19.65;10.48;;;;;;;4.92;79.15;94368.50;4969601;28;20030;-62
2020/12/18 01:50:12;;;;;;;17.90;9.15;;;;;;;4.95;78.76;94362.06;4966922;28;20038;-63
2020/12/18 01:52:37;;;;;;;21.88;10.35;;;;;;;4.74;78.96;94372.41;4969358;28;20080;-62
2020/12/18 01:55:05;;;;;;;16.30;9.15;;;;;;;4.78;79.07;94369.44;4966197;28;20043;-62
2020/12/18 01:57:36;;;;;;;17.85;10.10;;;;;;;4.80;78.68;94372.41;4970217;28;20053;-60
2020/12/18 02:00:04;;;;;;;18.67;9.32;;;;;;;4.76;78.92;94367.19;4968074;28;20035;-61
2020/12/18 02:02:29;;;;;;;17.80;9.77;;;;;;;4.72;79.67;94369.38;4966370;28;20029;-60
2020/12/18 02:04:55;;;;;;;21.60;9.80;;;;;;;4.81;79.12;94368.47;4971688;28;20023;-60
2020/12/18 02:07:26;;;;;;;25.27;10.20;;;;;;;4.73;79.75;94368.16;4971706;28;20026;-61
2020/12/18 02:09:51;;;;;;;16.25;9.02;;;;;;;4.82;78.87;94361.75;4970594;28;20114;-61
2020/12/18 02:12:20;;;;;;;17.13;8.40;;;;;;;4.76;78.75;94350.78;4966999;28;20030;-61
2020/12/18 02:14:52;;;;;;;24.13;9.07;;;;;;;4.82;79.00;94359.00;4966517;28;20070;-61
2020/12/18 02:17:18;;;;;;;17.80;8.55;;;;;;;4.73;78.76;94353.72;4968954;28;20046;-61
2020/12/18 02:19:51;;;;;;;15.95;7.70;;;;;;;4.75;78.48;94351.25;4969715;28;20031;-61
2020/12/18 02:22:18;;;;;;;19.20;9.55;;;;;;;4.51;79.31;94346.88;4968810;28;20551;-61
2020/12/18 02:25:09;;;;;;;17.63;8.98;;;;;;;4.48;79.63;94350.59;4969884;28;20022;-60
2020/12/18 02:27:38;;;;;;;18.48;8.65;;;;;;;4.38;79.71;94349.28;4969979;28;20042;-60
2020/12/18 02:30:14;;;;;;;16.70;8.73;;;;;;;4.47;79.57;94345.63;4967771;28;20486;-60
2020/12/18 02:32:39;;;;;;;17.75;8.23;;;;;;;4.51;79.95;94349.63;4970920;28;20042;-61
2020/12/18 02:35:05;;;;;;;18.10;9.40;;;;;;;4.52;79.84;94345.66;4967503;28;20027;-61
2020/12/18 02:37:31;;;;;;;17.95;9.07;;;;;;;4.59;79.69;94342.47;4966368;28;20113;-61
2020/12/18 02:39:58;;;;;;;18.50;8.60;;;;;;;4.61;79.24;94342.72;4969716;28;20121;-61
2020/12/18 02:42:23;;;;;;;21.40;9.93;;;;;;;4.63;79.35;94341.50;4965582;28;20090;-61
2020/12/18 02:44:48;;;;;;;21.27;9.52;;;;;;;4.62;79.00;94340.75;4966671;28;20031;-61
2020/12/18 02:47:14;;;;;;;17.30;7.72;;;;;;;4.53;78.84;94344.41;4967877;28;20037;-61
2020/12/18 02:49:39;;;;;;;18.63;7.90;;;;;;;4.57;78.79;94349.66;4964238;28;20041;-61
2020/12/18 02:52:05;;;;;;;17.55;8.15;;;;;;;4.60;78.93;94351.41;4965853;28;20066;-61
2020/12/18 02:54:31;;;;;;;14.85;7.38;;;;;;;4.63;78.58;94353.19;4969229;28;20899;-62
2020/12/18 02:56:56;;;;;;;19.38;8.70;;;;;;;4.58;78.72;94351.91;4969915;28;20035;-61
2020/12/18 02:59:22;;;;;;;15.40;7.10;;;;;;;4.53;78.45;94352.63;4969353;28;20023;-61
2020/12/18 03:01:47;;;;;;;20.35;8.52;;;;;;;4.47;78.58;94351.84;4971266;28;20054;-61
2020/12/18 03:04:12;;;;;;;19.98;8.75;;;;;;;4.54;78.73;94356.88;4966980;28;20097;-61
2020/12/18 03:06:38;;;;;;;19.65;9.00;;;;;;;4.49;78.59;94349.38;4967121;28;20031;-61
2020/12/18 03:09:04;;;;;;;19.05;9.20;;;;;;;4.63;78.31;94348.44;4963665;28;20030;-61
2020/12/18 03:11:29;;;;;;;21.15;9.75;;;;;;;4.52;78.75;94353.13;4968823;28;20053;-61
2020/12/18 03:13:54;;;;;;;18.63;9.05;;;;;;;4.41;79.24;94353.03;4965270;28;20559;-61
2020/12/18 03:16:20;;;;;;;14.30;7.40;;;;;;;4.39;78.99;94352.78;4970498;28;20086;-61
2020/12/18 03:18:45;;;;;;;16.02;7.85;;;;;;;4.39;79.21;94348.06;4968689;28;20056;-61
2020/12/18 03:21:11;;;;;;;13.88;7.28;;;;;;;4.27;79.41;94357.41;4966568;28;20042;-61
2020/12/18 03:23:36;;;;;;;18.88;9.20;;;;;;;4.34;79.52;94351.50;4970230;28;20054;-61
2020/12/18 03:26:01;;;;;;;18.17;9.05;;;;;;;4.47;79.33;94349.09;4969558;28;20061;-61
2020/12/18 03:28:27;;;;;;;20.27;9.48;;;;;;;4.52;79.49;94358.59;4967979;28;20035;-61
2020/12/18 03:30:53;;;;;;;22.33;11.70;;;;;;;4.54;79.66;94354.13;4968872;28;20030;-61
2020/12/18 03:33:18;;;;;;;25.08;10.35;;;;;;;4.54;79.66;94359.59;4965680;28;20031;-60
2020/12/18 03:35:44;;;;;;;23.90;10.38;;;;;;;4.57;79.23;94352.38;4964940;28;20030;-60
2020/12/18 03:38:09;;;;;;;25.00;11.77;;;;;;;4.60;79.38;94360.38;4964953;28;20023;-60
2020/12/18 03:40:34;;;;;;;44.20;20.23;;;;;;;4.59;79.18;94361.59;4965552;28;20399;-60
2020/12/18 03:43:00;;;;;;;25.50;12.27;;;;;;;4.57;78.58;94352.38;4968314;28;20045;-60
2020/12/18 03:45:25;;;;;;;18.40;9.25;;;;;;;4.45;78.79;94359.03;4967094;28;20455;-61
2020/12/18 03:47:51;;;;;;;22.30;9.98;;;;;;;4.47;79.19;94359.28;4969067;28;20038;-61
2020/12/18 03:50:16;;;;;;;25.05;13.07;;;;;;;4.58;79.21;94368.31;4968159;28;20110;-61
2020/12/18 03:52:41;;;;;;;21.35;11.50;;;;;;;4.49;78.75;94368.50;4966365;28;20110;-61
2020/12/18 03:55:07;;;;;;;56.78;26.30;;;;;;;4.51;78.91;94359.81;4967119;28;20094;-61
2020/12/18 03:57:32;;;;;;;24.35;11.15;;;;;;;4.33;79.55;94368.41;4965857;28;20121;-61
2020/12/18 03:59:57;;;;;;;20.00;9.95;;;;;;;4.43;79.62;94373.19;4966301;28;20952;-61
2020/12/18 04:02:23;;;;;;;22.48;9.50;;;;;;;4.39;79.86;94366.44;4968297;28;20033;-61
2020/12/18 04:04:48;;;;;;;23.00;10.75;;;;;;;4.47;79.72;94370.22;4969711;28;20026;-61
2020/12/18 04:07:14;;;;;;;26.90;11.02;;;;;;;4.51;79.28;94362.53;4969617;28;20392;-61
2020/12/18 04:09:43;;;;;;;22.40;11.50;;;;;;;4.34;79.18;94378.09;4969536;28;20439;-61
2020/12/18 04:12:09;;;;;;;21.08;10.43;;;;;;;4.32;79.35;94372.34;4969124;28;20558;-61
2020/12/18 04:14:35;;;;;;;21.88;9.05;;;;;;;4.33;79.52;94374.59;4969364;28;20406;-61
2020/12/18 04:17:04;;;;;;;19.48;8.05;;;;;;;4.29;79.87;94376.81;4969517;28;20086;-61
2020/12/18 04:19:29;;;;;;;19.60;10.23;;;;;;;4.11;79.81;94349.84;4969290;28;20031;-61
2020/12/18 04:21:55;;;;;;;19.63;8.75;;;;;;;4.35;79.93;94368.66;4969028;28;20094;-61
2020/12/18 04:24:21;;;;;;;20.80;8.68;;;;;;;4.33;79.77;94369.13;4969308;28;20031;-61
2020/12/18 04:26:46;;;;;;;17.45;8.93;;;;;;;4.43;79.24;94375.94;4969118;28;20023;-60
2020/12/18 04:29:12;;;;;;;20.17;8.70;;;;;;;4.38;79.62;94381.34;4969382;28;20121;-60
2020/12/18 04:31:37;;;;;;;17.48;8.93;;;;;;;4.38;79.53;94379.34;4969635;28;20027;-61
2020/12/18 04:34:02;;;;;;;21.08;8.38;;;;;;;4.41;79.50;94383.09;4968911;28;20604;-61
2020/12/18 04:36:28;;;;;;;18.15;9.38;;;;;;;4.43;79.12;94384.13;4969280;28;20491;-61
2020/12/18 04:38:53;;;;;;;24.90;11.20;;;;;;;4.41;79.63;94386.59;4968969;28;20027;-60
2020/12/18 04:41:19;;;;;;;19.45;8.80;;;;;;;4.41;79.25;94389.34;4969096;28;20026;-60
2020/12/18 04:43:45;;;;;;;17.80;8.82;;;;;;;4.39;78.89;94397.28;4968350;28;20043;-60
2020/12/18 04:46:12;;;;;;;19.75;8.52;;;;;;;4.39;79.29;94389.06;4967057;28;20073;-61
2020/12/18 04:48:37;;;;;;;20.90;9.30;;;;;;;4.43;79.49;94397.81;4967540;28;20034;-61
2020/12/18 04:51:03;;;;;;;18.15;8.77;;;;;;;4.41;79.25;94392.06;4967207;28;20919;-61
2020/12/18 04:53:32;;;;;;;22.33;10.18;;;;;;;4.38;79.78;94384.81;4967742;28;20038;-60
2020/12/18 04:56:07;;;;;;;23.60;11.13;;;;;;;4.40;79.72;94387.06;4968572;28;20038;-60
2020/12/18 04:58:33;;;;;;;28.23;11.93;;;;;;;4.24;80.09;94380.25;4970149;28;20034;-60
2020/12/18 05:00:59;;;;;;;19.90;8.73;;;;;;;4.22;79.53;94390.91;4971609;28;20027;-61
2020/12/18 05:03:25;;;;;;;19.13;8.20;;;;;;;4.24;79.52;94396.66;4972384;28;20495;-61
2020/12/18 05:05:51;;;;;;;26.88;8.60;;;;;;;4.22;79.66;94403.84;4970437;28;20062;-61
2020/12/18 05:08:16;;;;;;;20.23;8.77;;;;;;;4.19;79.60;94405.56;4971670;28;20046;-61
2020/12/18 05:10:42;;;;;;;19.73;8.82;;;;;;;4.05;80.65;94395.47;4972017;28;20578;-61
2020/12/18 05:13:07;;;;;;;21.10;10.05;;;;;;;4.07;80.47;94400.47;4971594;28;20411;-61
2020/12/18 05:15:33;;;;;;;18.00;9.13;;;;;;;4.11;80.36;94392.81;4970452;28;20039;-61
2020/12/18 05:17:59;;;;;;;21.15;10.50;;;;;;;4.22;80.31;94401.09;4970165;28;20042;-62
2020/12/18 05:20:24;;;;;;;20.48;9.88;;;;;;;4.26;80.52;94402.38;4969866;28;20035;-61
2020/12/18 05:22:53;;;;;;;29.70;13.38;;;;;;;4.30;80.08;94407.63;4969386;28;20026;-61
2020/12/18 05:25:19;;;;;;;;;;;;;;;4.28;80.23;94404.63;4953827;28;20110;-61
2020/12/18 05:27:44;;;;;;;22.27;12.48;;;;;;;4.17;80.21;94413.50;4969058;28;20369;-61
2020/12/18 05:30:10;;;;;;;24.92;8.93;;;;;;;4.09;80.26;94398.78;4969642;28;20480;-61
2020/12/18 05:32:36;;;;;;;21.42;7.95;;;;;;;4.26;79.43;94410.59;4968637;28;20035;-61
2020/12/18 05:35:02;;;;;;;20.83;7.82;;;;;;;4.30;79.10;94413.09;4969472;28;20030;-61
2020/12/18 05:37:38;;;;;;;21.67;8.57;;;;;;;4.25;79.41;94411.81;4971152;28;20494;-61
2020/12/18 05:40:05;;;;;;;48.78;21.27;;;;;;;4.16;79.76;94397.59;4971221;28;20035;-61
2020/12/18 05:42:40;;;;;;;33.58;19.63;;;;;;;4.24;79.62;94409.56;4970745;28;20778;-60
2020/12/18 05:45:18;;;;;;;27.77;13.88;;;;;;;4.20;80.36;94409.03;4957914;28;20730;-61
2020/12/18 05:48:00;;;;;;;19.77;9.00;;;;;;;4.13;80.31;94409.47;4968289;28;20042;-61
2020/12/18 05:50:37;;;;;;;24.45;8.13;;;;;;;4.06;80.37;94405.19;4970274;28;20030;-61
2020/12/18 05:53:06;;;;;;;19.80;8.50;;;;;;;4.14;80.41;94413.69;4970018;28;20078;-61
2020/12/18 05:55:39;;;;;;;17.63;8.40;;;;;;;4.22;80.12;94414.78;4969514;28;20114;-61
2020/12/18 05:58:05;;;;;;;23.38;8.77;;;;;;;4.19;79.80;94418.47;4966508;28;20093;-61
2020/12/18 06:00:36;;;;;;;27.50;13.85;;;;;;;4.11;80.61;94422.88;4970670;28;20117;-61
2020/12/18 06:03:01;;;;;;;33.35;16.80;;;;;;;4.15;80.59;94415.97;4970032;28;20034;-61
2020/12/18 06:05:27;;;;;;;67.28;29.73;;;;;;;4.07;80.49;94427.81;4952971;28;20023;-61
2020/12/18 06:07:53;;;;;;;163.43;61.80;;;;;;;4.07;80.75;94433.28;4970221;28;20085;-61
2020/12/18 06:10:21;;;;;;;43.20;17.83;;;;;;;4.05;80.07;94428.28;4970536;28;20031;-61
2020/12/18 06:12:47;;;;;;;22.77;9.48;;;;;;;4.12;79.52;94430.56;4969662;28;20659;-60
2020/12/18 06:15:18;;;;;;;33.40;13.68;;;;;;;4.09;79.89;94425.34;4961621;28;20041;-60
2020/12/18 06:17:46;;;;;;;25.27;11.15;;;;;;;4.05;80.21;94431.00;4966287;28;20494;-61
2020/12/18 06:20:15;;;;;;;28.95;15.65;;;;;;;4.00;80.43;94434.44;4967230;28;20026;-60
2020/12/18 06:23:04;;;;;;;29.65;12.00;;;;;;;4.08;80.36;94437.50;4967520;28;20526;-61
2020/12/18 06:25:30;;;;;;;35.15;18.83;;;;;;;4.04;80.69;94437.72;4966500;28;20577;-61
2020/12/18 06:28:00;;;;;;;24.65;12.90;;;;;;;4.07;80.51;94438.75;4967173;28;20030;-61
2020/12/18 06:30:26;;;;;;;22.27;11.35;;;;;;;4.08;80.03;94440.97;4967663;28;20500;-61
2020/12/18 06:32:51;;;;;;;22.02;10.30;;;;;;;4.12;80.42;94441.50;4967861;28;20030;-61
2020/12/18 06:35:30;;;;;;;23.55;11.57;;;;;;;4.15;79.98;94446.03;4965644;28;20050;-61
2020/12/18 06:37:57;;;;;;;42.97;17.83;;;;;;;4.20;79.67;94441.84;4965076;28;20122;-61
2020/12/18 06:40:28;;;;;;;36.47;14.98;;;;;;;4.16;78.98;94447.50;4965878;28;20114;-61
2020/12/18 06:42:56;;;;;;;40.85;16.77;;;;;;;4.15;79.65;94440.56;4966070;28;20042;-61
2020/12/18 06:45:21;;;;;;;55.63;21.23;;;;;;;4.15;79.82;94437.81;4967038;28;20082;-62
2020/12/18 06:47:47;;;;;;;39.38;16.23;;;;;;;4.19;79.51;94443.06;4966987;28;20651;-60
2020/12/18 06:50:14;;;;;;;21.90;9.18;;;;;;;4.03;80.12;94440.94;4967274;28;20027;-62
2020/12/18 06:52:44;;;;;;;16.50;7.22;;;;;;;4.12;79.63;94443.47;4968531;28;20051;-61
2020/12/18 06:55:29;;;;;;;26.42;11.52;;;;;;;4.20;79.46;94444.56;4965539;28;20060;-61
2020/12/18 06:58:15;;;;;;;28.35;11.52;;;;;;;4.17;79.63;94448.25;4965925;28;20117;-61
2020/12/18 07:00:43;;;;;;;28.50;13.23;;;;;;;4.23;79.78;94441.63;4966993;28;20030;-61
2020/12/18 07:03:10;;;;;;;25.25;9.57;;;;;;;4.20;79.96;94447.31;4967935;28;20558;-60
2020/12/18 07:05:42;;;;;;;24.02;11.80;;;;;;;4.21;79.79;94449.56;4967074;28;20046;-61
2020/12/18 07:08:13;;;;;;;34.20;15.27;;;;;;;4.32;79.82;94446.16;4966453;28;20113;-61
2020/12/18 07:10:47;;;;;;;31.48;17.48;;;;;;;4.35;79.59;94437.72;4966228;28;20380;-61
2020/12/18 07:13:14;;;;;;;28.20;13.68;;;;;;;4.27;79.71;94446.84;4965089;28;20034;-62
2020/12/18 07:16:04;;;;;;;19.77;8.55;;;;;;;4.33;79.59;94450.41;4966934;28;20042;-60
2020/12/18 07:18:34;;;;;;;19.60;10.02;;;;;;;4.37;79.02;94451.69;4963685;28;20146;-61
2020/12/18 07:21:02;;;;;;;20.67;8.75;;;;;;;4.37;79.20;94451.69;4967997;28;20116;-62
2020/12/18 07:23:29;;;;;;;15.85;9.00;;;;;;;4.43;79.25;94449.75;4967846;28;20034;-61
2020/12/18 07:25:56;;;;;;;14.75;7.78;;;;;;;4.49;78.84;94458.00;4967092;28;20061;-61
2020/12/18 07:28:23;;;;;;;28.80;8.20;;;;;;;4.31;78.60;94459.06;4968021;28;20532;-61
2020/12/18 07:30:49;;;;;;;14.98;6.85;;;;;;;4.38;78.70;94466.84;4963083;28;20121;-61
2020/12/18 07:33:16;;;;;;;12.82;6.70;;;;;;;4.47;78.72;94461.22;4965278;28;20022;-61
2020/12/18 07:35:47;;;;;;;13.90;6.38;;;;;;;4.51;78.55;94464.47;4961984;28;20046;-61
2020/12/18 07:38:16;;;;;;;20.55;9.43;;;;;;;4.55;78.04;94467.75;4965050;28;20041;-61
2020/12/18 07:40:42;;;;;;;20.23;11.23;;;;;;;4.65;77.91;94470.31;4964593;28;20396;-61
2020/12/18 07:43:09;;;;;;;18.95;10.45;;;;;;;4.60;78.05;94471.75;4964187;28;20041;-61
2020/12/18 07:45:39;;;;;;;14.38;8.23;;;;;;;4.65;77.76;94467.56;4966270;28;20092;-60
2020/12/18 07:48:19;;;;;;;24.20;10.93;;;;;;;4.49;78.26;94466.94;4966032;28;20105;-61
2020/12/18 07:51:00;;;;;;;43.95;20.08;;;;;;;4.48;78.38;94468.16;4965887;28;20058;-61
2020/12/18 07:53:31;;;;;;;23.27;11.80;;;;;;;4.43;79.01;94468.13;4964562;28;20051;-61
2020/12/18 07:55:57;;;;;;;15.95;8.50;;;;;;;4.57;78.69;94469.97;4964377;28;20030;-61
2020/12/18 07:58:23;;;;;;;14.10;6.70;;;;;;;4.73;77.09;94476.81;4963025;28;20099;-61
2020/12/18 08:00:48;;;;;;;14.77;6.65;;;;;;;4.78;76.67;94467.91;4964098;28;20181;-61
2020/12/18 08:03:14;;;;;;;12.50;5.38;;;;;;;4.71;76.56;94469.09;4966039;28;20142;-61
2020/12/18 08:05:43;;;;;;;14.23;6.97;;;;;;;4.74;76.99;94470.13;4964073;28;20181;-61
2020/12/18 08:08:09;;;;;;;;;;;;;;;4.76;77.73;94473.88;4963609;28;20038;-61
2020/12/18 08:10:34;;;;;;;14.52;5.55;;;;;;;4.69;76.98;94470.81;4961935;28;19930;-61
2020/12/18 08:13:00;;;;;;;12.50;6.25;;;;;;;4.70;76.73;94478.53;4962687;28;20101;-61
2020/12/18 08:15:25;;;;;;;18.08;7.38;;;;;;;4.31;77.13;94414.59;4964958;28;20038;-61
2020/12/18 08:17:50;;;;;;;13.43;7.80;;;;;;;4.70;77.50;94477.81;4962175;28;20030;-61
2020/12/18 08:20:16;;;;;;;14.52;7.00;;;;;;;4.74;77.19;94475.59;4962813;28;20450;-61
2020/12/18 08:22:43;;;;;;;16.48;7.80;;;;;;;4.85;77.08;94481.16;4964135;28;20049;-61
2020/12/18 08:25:09;;;;;;;14.15;6.65;;;;;;;4.76;76.45;94482.09;4965033;28;20035;-61
2020/12/18 08:27:55;;;;;;;10.70;5.32;;;;;;;4.66;77.26;94486.22;4963822;28;20030;-61
2020/12/18 08:30:22;;;;;;;13.10;7.72;;;;;;;4.58;76.86;94485.91;4960020;28;20043;-61
2020/12/18 08:32:53;;;;;;;10.68;5.45;;;;;;;4.71;77.14;94484.75;4963910;28;20041;-61
2020/12/18 08:35:20;;;;;;;14.27;7.68;;;;;;;4.77;77.17;94480.09;4968099;28;20042;-61
2020/12/18 08:37:45;;;;;;;16.98;7.72;;;;;;;4.79;77.07;94492.03;4968105;28;20031;-61
2020/12/18 08:40:26;;;;;;;23.55;11.43;;;;;;;4.94;76.56;94491.91;4968731;28;20053;-61
2020/12/18 08:43:01;;;;;;;27.67;12.85;;;;;;;4.95;76.13;94485.94;4967627;28;20038;-61
2020/12/18 08:45:27;;;;;;;23.55;10.52;;;;;;;5.05;75.53;94484.53;4963403;28;20038;-61
2020/12/18 08:47:53;;;;;;;26.50;11.57;;;;;;;5.06;75.66;94483.28;4967787;28;20078;-61
2020/12/18 08:50:18;;;;;;;29.92;14.68;;;;;;;5.11;75.52;94482.56;4968106;28;20077;-62
2020/12/18 08:52:44;;;;;;;44.30;16.25;;;;;;;5.00;75.32;94479.75;4967567;28;20053;-61
2020/12/18 08:55:10;;;;;;;28.65;13.82;;;;;;;4.94;75.85;94475.47;4965853;28;20058;-61
2020/12/18 08:57:36;;;;;;;19.95;10.50;;;;;;;4.87;76.51;94476.69;4964691;28;20077;-61
2020/12/18 09:00:14;;;;;;;14.40;7.53;;;;;;;4.94;76.27;94487.19;4966546;28;20057;-61
2020/12/18 09:02:47;;;;;;;12.18;7.05;;;;;;;5.04;75.86;94480.31;4967547;28;20035;-61
2020/12/18 09:05:33;;;;;;;16.08;9.25;;;;;;;5.09;75.28;94485.03;4966798;28;20438;-61
2020/12/18 09:08:06;;;;;;;21.63;10.13;;;;;;;5.12;75.59;94483.31;4965910;28;20682;-61
2020/12/18 09:10:39;;;;;;;25.17;11.07;;;;;;;5.09;75.37;94476.09;4966591;28;20070;-61
2020/12/18 09:13:29;;;;;;;15.70;8.15;;;;;;;5.15;75.36;94469.41;4964797;28;20035;-61
2020/12/18 09:16:05;;;;;;;11.35;5.95;;;;;;;5.16;74.94;94467.41;4967167;28;20487;-60
2020/12/18 09:18:38;;;;;;;16.65;8.23;;;;;;;4.87;75.57;94465.75;4966529;28;20038;-60
2020/12/18 09:21:09;;;;;;;17.40;8.75;;;;;;;4.98;75.90;94470.56;4967440;28;20031;-60
2020/12/18 09:23:34;;;;;;;25.33;12.80;;;;;;;4.96;76.25;94473.75;4967591;28;20026;-61
2020/12/18 09:26:01;;;;;;;20.60;7.80;;;;;;;5.03;76.01;94472.56;4967760;28;20491;-62
2020/12/18 09:28:27;;;;;;;12.23;6.63;;;;;;;5.10;75.59;94466.63;4967383;28;20047;-62
2020/12/18 09:30:57;;;;;;;18.00;9.13;;;;;;;5.05;75.21;94468.09;4967349;28;20037;-61
2020/12/18 09:33:25;;;;;;;13.93;7.55;;;;;;;5.12;75.43;94475.88;4968595;28;20031;-61
2020/12/18 09:36:00;;;;;;;13.13;7.43;;;;;;;5.06;75.33;94468.84;4968334;28;20030;-61
2020/12/18 09:38:34;;;;;;;14.48;7.32;;;;;;;5.13;75.42;94468.41;4968630;28;20784;-60
2020/12/18 09:41:02;;;;;;;13.27;7.13;;;;;;;5.13;75.56;94460.19;4968613;28;20499;-61
2020/12/18 09:43:27;;;;;;;16.98;8.98;;;;;;;5.09;76.05;94465.16;4961834;28;20484;-61
2020/12/18 09:45:53;;;;;;;14.25;6.95;;;;;;;5.09;75.84;94474.09;4967923;28;20030;-61
2020/12/18 09:48:19;;;;;;;11.70;6.15;;;;;;;5.11;75.48;94468.16;4967517;28;20027;-62
2020/12/18 09:50:45;;;;;;;15.57;8.50;;;;;;;5.05;74.95;94461.88;4967223;28;20484;-61
2020/12/18 09:53:10;;;;;;;16.10;8.98;;;;;;;5.16;75.38;94453.72;4967262;28;20051;-61
2020/12/18 09:55:36;;;;;;;22.88;11.25;;;;;;;5.10;75.44;94448.22;4968131;28;20050;-61
2020/12/18 09:58:03;;;;;;;11.88;6.57;;;;;;;5.16;75.14;94442.78;4967582;28;20138;-61
2020/12/18 10:00:29;;;;;;;14.40;6.97;;;;;;;5.26;74.36;94441.34;4964520;28;20031;-61
2020/12/18 10:02:56;;;;;;;8.95;5.03;;;;;;;5.41;74.03;94435.69;4968331;28;20041;-61
2020/12/18 10:05:22;;;;;;;10.05;5.57;;;;;;;5.49;73.36;94434.72;4967158;28;20033;-62
2020/12/18 10:07:47;;;;;;;11.60;6.47;;;;;;;5.46;73.06;94429.50;4967681;28;20619;-61
2020/12/18 10:10:13;;;;;;;11.27;5.53;;;;;;;5.49;73.18;94436.72;4967666;28;20034;-61
2020/12/18 10:12:38;;;;;;;11.98;7.72;;;;;;;5.48;73.82;94427.75;4968009;28;20049;-61
2020/12/18 10:15:04;;;;;;;13.82;7.13;;;;;;;5.57;73.38;94437.72;4966380;28;20041;-61
2020/12/18 10:17:30;;;;;;;15.40;8.52;;;;;;;5.61;73.09;94428.03;4966153;28;20033;-61
2020/12/18 10:19:55;;;;;;;13.30;7.63;;;;;;;5.58;73.88;94431.03;4966063;28;20022;-61
2020/12/18 10:22:21;;;;;;;12.48;6.68;;;;;;;5.57;73.42;94424.78;4965852;28;20081;-61
2020/12/18 10:24:46;;;;;;;13.25;6.47;;;;;;;5.46;73.41;94421.28;4963749;28;20081;-61
2020/12/18 10:27:12;;;;;;;13.27;6.47;;;;;;;5.47;73.92;94423.53;4966070;28;20038;-60
2020/12/18 10:29:38;;;;;;;11.65;6.47;;;;;;;5.50;73.82;94425.25;4966438;28;20126;-60
2020/12/18 10:32:04;;;;;;;12.38;6.03;;;;;;;5.57;73.76;94405.63;4967269;28;20057;-60
2020/12/18 10:34:29;;;;;;;10.88;5.65;;;;;;;5.56;73.71;94417.06;4967173;28;20459;-60
2020/12/18 10:36:56;;;;;;;15.63;6.60;;;;;;;5.27;73.70;94416.22;4966729;28;20042;-60
2020/12/18 10:39:23;;;;;;;14.93;8.65;;;;;;;5.38;74.45;94419.00;4964649;28;20051;-60
2020/12/18 10:41:52;;;;;;;12.40;6.47;;;;;;;5.49;74.49;94426.50;4964555;28;20038;-60
2020/12/18 10:44:18;;;;;;;9.70;5.97;;;;;;;5.66;74.08;94418.34;4963802;28;20089;-60
2020/12/18 10:46:45;;;;;;;27.42;11.55;;;;;;;5.58;73.63;94415.34;4966372;28;20034;-60
2020/12/18 10:49:11;;;;;;;22.35;8.98;;;;;;;5.74;73.54;94411.16;4964587;28;20034;-61
2020/12/18 10:51:43;;;;;;;14.55;8.23;;;;;;;5.87;73.36;94414.19;4965222;28;20058;-61
2020/12/18 10:54:09;;;;;;;26.88;12.55;;;;;;;5.90;73.09;94397.53;4963431;28;20491;-61
2020/12/18 10:56:42;;;;;;;17.42;9.02;;;;;;;5.91;73.09;94401.03;4962582;28;20031;-61
2020/12/18 10:59:08;;;;;;;25.38;10.63;;;;;;;5.94;72.73;94394.53;4965120;28;20700;-61
2020/12/18 11:01:34;;;;;;;31.13;14.02;;;;;;;5.89;72.74;94396.00;4963161;28;20085;-61
2020/12/18 11:03:59;;;;;;;63.28;26.95;;;;;;;5.67;74.15;94393.22;4963500;28;20031;-60
2020/12/18 11:06:25;;;;;;;18.30;9.57;;;;;;;5.80;74.02;94396.25;4964066;28;20054;-61
2020/12/18 11:08:50;;;;;;;22.08;10.93;;;;;;;5.77;72.99;94386.25;4964979;28;20062;-61
2020/12/18 11:11:16;;;;;;;21.35;10.70;;;;;;;5.68;72.77;94378.25;4965414;28;20105;-61
2020/12/18 11:13:41;;;;;;;18.77;8.85;;;;;;;5.72;73.08;94369.78;4965479;28;20114;-61
2020/12/18 11:16:08;;;;;;;14.45;7.82;;;;;;;5.81;73.17;94391.50;4965578;28;20467;-61
2020/12/18 11:18:34;;;;;;;14.27;6.90;;;;;;;5.81;72.06;94384.03;4966516;28;20074;-61
2020/12/18 11:21:04;;;;;;;13.40;7.68;;;;;;;5.69;72.48;94382.50;4966267;28;20122;-61
2020/12/18 11:23:29;;;;;;;13.90;7.53;;;;;;;5.64;73.29;94371.53;4964217;28;20034;-61
2020/12/18 11:25:55;;;;;;;14.75;8.85;;;;;;;5.82;72.62;94382.03;4964871;28;20027;-61
2020/12/18 11:28:20;;;;;;;13.27;8.27;;;;;;;5.89;73.37;94384.31;4963903;28;20153;-61
2020/12/18 11:30:47;;;;;;;15.18;7.63;;;;;;;5.75;73.14;94375.03;4964442;28;20789;-61
2020/12/18 11:33:12;;;;;;;17.80;9.05;;;;;;;5.76;73.58;94379.28;4963830;28;20035;-61